createdAt,value
2018-06-24T00:00:46.337Z,13.73
2018-06-24T00:03:14.360Z,12.00
2018-06-24T00:05:42.356Z,13.53
2018-06-24T00:08:10.390Z,11.10
2018-06-24T00:10:38.402Z,16.17
2018-06-24T00:13:06.475Z,13.67
2018-06-24T00:15:34.550Z,13.70
2018-06-24T00:18:02.500Z,10.30
2018-06-24T00:20:30.567Z,11.93
2018-06-24T00:22:58.574Z,12.70
2018-06-24T00:25:26.631Z,11.83
2018-06-24T00:27:54.647Z,16.03
2018-06-24T00:31:25.997Z,11.07
2018-06-24T00:33:53.999Z,10.83
2018-06-24T00:36:22.030Z,8.17
2018-06-24T00:38:50.360Z,11.20
2018-06-24T00:41:18.397Z,10.43
2018-06-24T00:43:46.465Z,9.03
2018-06-24T00:46:14.710Z,13.63
2018-06-24T00:48:43.252Z,13.73
2018-06-24T00:51:11.561Z,7.90
2018-06-24T00:53:39.572Z,8.33
2018-06-24T00:56:07.732Z,8.77
2018-06-24T00:58:35.787Z,9.00
2018-06-24T01:01:03.811Z,12.33
2018-06-24T01:03:31.857Z,9.03
2018-06-24T01:06:00.532Z,9.00
2018-06-24T01:08:28.616Z,8.10
2018-06-24T01:10:56.675Z,15.47
2018-06-24T01:13:24.745Z,11.90
2018-06-24T01:15:52.715Z,8.17
2018-06-24T01:18:20.799Z,10.50
2018-06-24T01:20:48.841Z,13.27
2018-06-24T01:23:16.944Z,7.10
2018-06-24T01:25:44.978Z,7.33
2018-06-24T01:28:13.033Z,9.33
2018-06-24T01:30:41.030Z,9.63
2018-06-24T01:33:08.980Z,11.10
2018-06-24T01:35:37.011Z,7.33
2018-06-24T01:38:05.020Z,8.60
2018-06-24T01:40:33.009Z,10.33
2018-06-24T01:43:01.072Z,10.47
2018-06-24T01:45:30.113Z,10.80
2018-06-24T01:47:58.119Z,10.20
2018-06-24T01:50:26.177Z,11.83
2018-06-24T01:52:54.264Z,9.30
2018-06-24T01:55:22.273Z,8.53
2018-06-24T01:57:50.354Z,11.23
2018-06-24T02:00:18.401Z,9.07
2018-06-24T02:02:46.390Z,11.53
2018-06-24T02:05:14.406Z,11.47
2018-06-24T02:07:42.529Z,11.30
2018-06-24T02:10:10.575Z,10.27
2018-06-24T02:12:38.583Z,10.00
2018-06-24T02:15:06.637Z,10.33
2018-06-24T02:17:34.604Z,9.23
2018-06-24T02:20:02.658Z,9.40
2018-06-24T02:22:30.642Z,13.67
2018-06-24T02:24:58.669Z,12.43
2018-06-24T02:27:26.684Z,12.80
2018-06-24T02:29:54.740Z,10.37
2018-06-24T02:32:22.774Z,16.27
2018-06-24T02:34:50.792Z,10.83
2018-06-24T02:37:18.835Z,12.17
2018-06-24T02:39:46.821Z,12.37
2018-06-24T02:42:14.833Z,12.57
2018-06-24T02:44:42.839Z,13.97
2018-06-24T02:47:10.907Z,11.97
2018-06-24T02:49:38.998Z,15.73
2018-06-24T02:52:07.006Z,12.33
2018-06-24T02:54:35.041Z,9.43
2018-06-24T02:57:03.063Z,11.73
2018-06-24T02:59:31.117Z,13.43
2018-06-24T03:01:59.169Z,11.70
2018-06-24T03:04:27.118Z,14.03
2018-06-24T03:06:55.132Z,11.37
2018-06-24T03:09:23.163Z,11.43
2018-06-24T03:11:51.206Z,12.93
2018-06-24T03:14:19.192Z,13.77
2018-06-24T03:16:47.359Z,16.17
2018-06-24T03:19:15.623Z,10.37
2018-06-24T03:21:43.639Z,13.87
2018-06-24T03:24:11.696Z,14.77
2018-06-24T03:26:39.709Z,12.27
2018-06-24T03:29:07.731Z,12.23
2018-06-24T03:31:35.776Z,16.77
2018-06-24T03:34:03.841Z,16.30
2018-06-24T03:36:31.977Z,13.20
2018-06-24T03:39:00.019Z,14.10
2018-06-24T03:41:28.044Z,19.67
2018-06-24T03:43:56.073Z,16.40
2018-06-24T03:46:24.071Z,18.07
2018-06-24T03:48:52.075Z,22.00
2018-06-24T03:51:20.194Z,20.60
2018-06-24T03:53:48.184Z,18.63
2018-06-24T03:56:16.240Z,20.53
2018-06-24T03:58:44.296Z,16.60
2018-06-24T04:01:12.299Z,21.93
2018-06-24T04:03:40.399Z,18.17
2018-06-24T04:06:08.445Z,26.93
2018-06-24T04:08:36.507Z,20.63
2018-06-24T04:11:04.594Z,25.83
2018-06-24T04:13:32.661Z,17.13
2018-06-24T04:16:01.851Z,15.97
2018-06-24T04:18:34.489Z,19.20
2018-06-24T04:21:02.578Z,23.43
2018-06-24T04:23:30.611Z,18.17
2018-06-24T04:25:58.681Z,18.10
2018-06-24T04:28:26.684Z,19.40
2018-06-24T04:30:54.745Z,15.23
2018-06-24T04:33:22.860Z,21.73
2018-06-24T04:35:50.879Z,19.80
2018-06-24T04:38:18.860Z,19.67
2018-06-24T04:40:46.859Z,16.73
2018-06-24T04:43:14.931Z,15.03
2018-06-24T04:45:43.068Z,23.30
2018-06-24T04:48:11.156Z,20.10
2018-06-24T04:50:39.161Z,26.20
2018-06-24T04:53:07.287Z,26.83
2018-06-24T04:55:35.339Z,20.00
2018-06-24T04:58:03.374Z,23.10
2018-06-24T05:00:31.375Z,28.40
2018-06-24T05:02:59.486Z,18.03
2018-06-24T05:05:27.452Z,25.10
2018-06-24T05:07:55.524Z,33.43
2018-06-24T05:10:23.588Z,22.70
2018-06-24T05:12:51.617Z,20.80
2018-06-24T05:15:19.727Z,24.43
2018-06-24T05:17:47.754Z,26.97
2018-06-24T05:20:15.735Z,21.13
2018-06-24T05:22:43.865Z,25.03
2018-06-24T05:25:11.859Z,27.37
2018-06-24T05:29:48.456Z,23.63
2018-06-24T05:32:16.552Z,27.20
2018-06-24T05:34:44.540Z,18.13
2018-06-24T05:37:12.580Z,30.50
2018-06-24T05:39:40.679Z,24.17
2018-06-24T05:42:08.718Z,28.00
2018-06-24T05:44:36.769Z,23.30
2018-06-24T05:47:04.822Z,23.97
2018-06-24T05:49:33.129Z,33.03
2018-06-24T05:52:01.126Z,31.70
2018-06-24T05:54:29.774Z,21.97
2018-06-24T05:56:57.775Z,24.23
2018-06-24T05:59:25.753Z,21.43
2018-06-24T06:01:53.866Z,23.00
2018-06-24T06:04:21.812Z,20.20
2018-06-24T06:06:49.975Z,19.40
2018-06-24T06:09:18.041Z,24.13
2018-06-24T06:11:46.120Z,21.67
2018-06-24T06:14:14.103Z,19.90
2018-06-24T06:16:43.019Z,25.50
2018-06-24T06:19:11.080Z,20.83
2018-06-24T06:21:39.169Z,24.07
2018-06-24T06:24:07.179Z,19.87
2018-06-24T06:26:35.213Z,15.20
2018-06-24T06:29:03.263Z,20.07
2018-06-24T06:31:31.316Z,17.80
2018-06-24T06:33:59.399Z,20.27
2018-06-24T06:36:27.468Z,21.93
2018-06-24T06:38:55.535Z,22.20
2018-06-24T06:41:23.776Z,19.97
2018-06-24T06:43:51.872Z,22.87
2018-06-24T06:46:19.881Z,17.10
2018-06-24T06:48:47.903Z,18.53
2018-06-24T06:51:15.898Z,19.70
2018-06-24T06:53:43.987Z,16.63
2018-06-24T06:56:12.033Z,18.37
2018-06-24T06:58:40.015Z,19.47
2018-06-24T07:01:08.039Z,19.97
2018-06-24T07:03:36.052Z,14.40
2018-06-24T07:06:04.097Z,17.10
2018-06-24T07:08:32.077Z,17.73
2018-06-24T07:11:00.191Z,15.57
2018-06-24T07:13:28.207Z,15.23
2018-06-24T07:15:56.262Z,12.00
2018-06-24T07:18:24.420Z,14.83
2018-06-24T07:20:52.529Z,14.40
2018-06-24T07:23:20.631Z,11.27
2018-06-24T07:25:48.643Z,11.13
2018-06-24T07:28:16.641Z,16.17
2018-06-24T07:30:44.649Z,18.97
2018-06-24T07:33:12.722Z,10.67
2018-06-24T07:35:40.748Z,15.93
2018-06-24T07:38:08.768Z,9.60
2018-06-24T07:40:36.928Z,10.97
2018-06-24T07:43:05.301Z,11.47
2018-06-24T07:45:33.295Z,15.03
2018-06-24T07:48:01.351Z,8.77
2018-06-24T07:50:29.399Z,10.10
2018-06-24T07:52:57.506Z,9.87
2018-06-24T07:55:25.661Z,11.50
2018-06-24T07:57:53.653Z,9.87
2018-06-24T08:00:21.770Z,13.53
2018-06-24T08:02:49.917Z,12.17
2018-06-24T08:05:18.272Z,9.33
2018-06-24T08:07:46.292Z,9.80
2018-06-24T08:10:14.335Z,13.60
2018-06-24T08:12:42.293Z,8.50
2018-06-24T08:15:10.362Z,8.83
2018-06-24T08:17:38.379Z,9.27
2018-06-24T08:20:06.420Z,11.03
2018-06-24T08:22:34.397Z,13.30
2018-06-24T08:25:02.409Z,9.73
2018-06-24T08:27:30.408Z,9.53
2018-06-24T08:29:58.554Z,8.27
2018-06-24T08:32:26.551Z,10.07
2018-06-24T08:34:54.827Z,8.27
2018-06-24T08:37:22.908Z,8.97
2018-06-24T08:39:51.044Z,9.70
2018-06-24T08:42:19.145Z,11.70
2018-06-24T08:44:47.236Z,8.93
2018-06-24T08:47:15.402Z,14.87
2018-06-24T08:49:43.411Z,9.00
2018-06-24T08:52:11.431Z,9.87
2018-06-24T08:54:39.516Z,10.37
2018-06-24T08:57:07.536Z,10.10
2018-06-24T08:59:35.581Z,10.00
2018-06-24T09:02:03.574Z,9.57
2018-06-24T09:04:31.693Z,8.97
2018-06-24T09:06:59.797Z,7.43
2018-06-24T09:09:27.823Z,10.57
2018-06-24T09:11:55.800Z,9.80
2018-06-24T09:14:23.820Z,11.00
2018-06-24T09:16:51.847Z,7.97
2018-06-24T09:19:19.899Z,11.00
2018-06-24T09:21:47.899Z,7.57
2018-06-24T09:24:15.922Z,9.33
2018-06-24T09:26:43.946Z,8.40
2018-06-24T09:29:12.008Z,6.67
2018-06-24T09:31:39.995Z,7.70
2018-06-24T09:34:07.997Z,6.60
2018-06-24T09:36:35.951Z,10.80
2018-06-24T09:39:06.178Z,5.70
2018-06-24T09:41:34.345Z,5.90
2018-06-24T09:44:02.441Z,4.47
2018-06-24T09:46:30.600Z,6.27
2018-06-24T09:48:58.611Z,4.47
2018-06-24T09:51:26.835Z,6.10
2018-06-24T09:53:54.928Z,6.17
2018-06-24T09:56:22.943Z,7.30
2018-06-24T09:58:50.971Z,4.97
2018-06-24T10:01:18.970Z,4.10
2018-06-24T10:03:46.947Z,5.53
2018-06-24T10:06:15.026Z,6.20
2018-06-24T10:08:43.044Z,6.73
2018-06-24T10:11:11.159Z,5.27
2018-06-24T10:13:39.200Z,5.00
2018-06-24T10:16:07.211Z,5.60
2018-06-24T10:18:35.173Z,4.87
2018-06-24T10:21:03.694Z,7.43
2018-06-24T10:23:31.742Z,4.93
2018-06-24T10:25:59.757Z,5.37
2018-06-24T10:28:27.940Z,7.37
2018-06-24T10:30:56.002Z,7.00
2018-06-24T10:33:24.019Z,5.83
2018-06-24T10:35:52.094Z,4.80
2018-06-24T10:38:20.226Z,6.50
2018-06-24T10:40:48.249Z,5.73
2018-06-24T10:43:16.242Z,5.20
2018-06-24T10:45:44.485Z,5.53
2018-06-24T10:48:14.053Z,4.03
2018-06-24T10:50:42.087Z,5.10
2018-06-24T10:53:10.537Z,3.97
2018-06-24T10:55:38.511Z,6.80
2018-06-24T10:58:06.715Z,5.13
2018-06-24T11:00:35.363Z,7.27
2018-06-24T11:03:03.597Z,7.17
2018-06-24T11:05:31.640Z,7.03
2018-06-24T11:07:59.622Z,5.37
2018-06-24T11:10:27.722Z,4.77
2018-06-24T11:12:55.880Z,7.30
2018-06-24T11:15:24.015Z,5.10
2018-06-24T11:17:51.990Z,5.50
2018-06-24T11:20:20.008Z,5.50
2018-06-24T11:22:48.050Z,4.10
2018-06-24T11:25:16.017Z,4.23
2018-06-24T11:27:44.047Z,5.03
2018-06-24T11:30:12.174Z,4.63
2018-06-24T11:32:40.176Z,4.90
2018-06-24T11:35:08.148Z,6.17
2018-06-24T11:37:36.194Z,6.47
2018-06-24T11:40:04.226Z,5.33
2018-06-24T11:42:32.248Z,4.10
2018-06-24T11:45:00.280Z,3.50
2018-06-24T11:47:28.347Z,3.33
2018-06-24T11:49:56.346Z,2.57
2018-06-24T11:52:24.315Z,2.43
2018-06-24T11:54:52.292Z,4.53
2018-06-24T11:57:20.334Z,4.37
2018-06-24T11:59:48.420Z,2.40
2018-06-24T12:02:16.431Z,3.20
2018-06-24T12:04:44.425Z,2.70
2018-06-24T12:07:12.536Z,2.80
2018-06-24T12:09:40.608Z,3.53
2018-06-24T12:12:08.639Z,3.00
2018-06-24T12:14:36.687Z,2.63
2018-06-24T12:17:04.689Z,4.33
2018-06-24T12:19:32.733Z,4.27
2018-06-24T12:22:00.716Z,4.40
2018-06-24T12:24:28.704Z,5.57
2018-06-24T12:26:56.666Z,5.27
2018-06-24T12:29:24.832Z,5.20
2018-06-24T12:31:53.009Z,4.70
2018-06-24T12:34:21.169Z,4.07
2018-06-24T12:36:49.391Z,4.30
2018-06-24T12:39:18.332Z,4.83
2018-06-24T12:41:46.360Z,6.67
2018-06-24T12:44:14.474Z,7.37
2018-06-24T12:46:42.532Z,5.93
2018-06-24T12:49:10.526Z,5.53
2018-06-24T12:51:39.129Z,4.70
2018-06-24T12:54:07.557Z,4.83
2018-06-24T12:56:35.682Z,8.17
2018-06-24T12:59:03.893Z,5.00
2018-06-24T13:01:31.972Z,6.13
2018-06-24T13:03:59.979Z,5.00
2018-06-24T13:06:28.078Z,8.90
2018-06-24T13:08:56.562Z,6.53
2018-06-24T13:11:25.033Z,8.80
2018-06-24T13:13:53.137Z,4.77
2018-06-24T13:16:21.310Z,6.20
2018-06-24T13:18:49.379Z,4.00
2018-06-24T13:21:17.441Z,3.77
2018-06-24T13:23:45.467Z,3.87
2018-06-24T13:26:44.700Z,6.60
2018-06-24T13:29:12.774Z,3.90
2018-06-24T13:31:40.878Z,4.83
2018-06-24T13:34:08.820Z,4.03
2018-06-24T13:36:36.912Z,5.80
2018-06-24T13:39:06.835Z,5.10
2018-06-24T13:41:34.991Z,3.87
2018-06-24T13:44:03.169Z,4.83
2018-06-24T13:46:31.172Z,4.30
2018-06-24T13:48:59.235Z,4.60
2018-06-24T13:51:27.226Z,4.13
2018-06-24T13:53:55.275Z,5.50
2018-06-24T13:56:23.297Z,5.57
2018-06-24T13:58:51.351Z,4.37
2018-06-24T14:01:19.447Z,4.73
2018-06-24T14:03:47.459Z,5.80
2018-06-24T14:06:15.580Z,6.30
2018-06-24T14:08:43.664Z,6.80
2018-06-24T14:11:11.653Z,3.73
2018-06-24T14:13:39.719Z,5.00
2018-06-24T14:16:07.800Z,4.47
2018-06-24T14:18:35.805Z,4.07
2018-06-24T14:21:03.821Z,7.00
2018-06-24T14:23:31.995Z,4.23
2018-06-24T14:25:59.992Z,3.93
2018-06-24T14:28:28.279Z,4.40
2018-06-24T14:30:56.426Z,3.37
2018-06-24T14:33:24.591Z,3.80
2018-06-24T14:35:56.665Z,4.30
2018-06-24T14:38:24.681Z,6.53
2018-06-24T14:40:52.740Z,5.63
2018-06-24T14:43:20.768Z,6.10
2018-06-24T14:45:48.752Z,4.40
2018-06-24T14:48:16.847Z,8.43
2018-06-24T14:50:45.170Z,7.33
2018-06-24T14:53:13.379Z,5.43
2018-06-24T14:55:41.483Z,5.70
2018-06-24T14:58:09.614Z,5.43
2018-06-24T15:00:37.680Z,5.03
2018-06-24T15:03:05.746Z,5.80
2018-06-24T15:05:33.742Z,9.03
2018-06-24T15:08:01.833Z,4.70
2018-06-24T15:10:29.824Z,5.43
2018-06-24T15:12:57.912Z,4.87
2018-06-24T15:15:25.891Z,5.80
2018-06-24T15:17:53.874Z,6.03
2018-06-24T15:20:21.917Z,6.23
2018-06-24T15:22:49.957Z,6.50
2018-06-24T15:25:17.943Z,8.43
2018-06-24T15:27:45.995Z,4.87
2018-06-24T15:30:14.057Z,6.67
2018-06-24T15:32:42.118Z,5.07
2018-06-24T15:35:10.161Z,4.70
2018-06-24T15:37:38.271Z,6.30
2018-06-24T15:40:06.325Z,5.10
2018-06-24T15:42:34.493Z,6.60
2018-06-24T15:45:02.733Z,6.67
2018-06-24T15:47:30.751Z,8.03
2018-06-24T15:49:58.710Z,4.97
2018-06-24T15:52:26.772Z,4.63
2018-06-24T15:54:54.918Z,6.83
2018-06-24T15:57:22.959Z,8.87
2018-06-24T15:59:51.088Z,6.23
2018-06-24T16:02:19.126Z,5.30
2018-06-24T16:04:47.168Z,5.47
2018-06-24T16:07:15.232Z,5.90
2018-06-24T16:09:43.271Z,5.90
2018-06-24T16:12:11.296Z,5.00
2018-06-24T16:14:39.278Z,6.90
2018-06-24T16:17:07.344Z,9.20
2018-06-24T16:19:35.362Z,8.70
2018-06-24T16:22:03.460Z,7.40
2018-06-24T16:24:31.549Z,5.23
2018-06-24T16:28:03.034Z,7.07
2018-06-24T16:30:31.017Z,5.77
2018-06-24T16:32:59.052Z,8.67
2018-06-24T16:35:27.103Z,7.70
2018-06-24T16:37:55.321Z,7.43
2018-06-24T16:40:23.493Z,8.67
2018-06-24T16:42:51.545Z,7.73
2018-06-24T16:45:19.606Z,8.10
2018-06-24T16:47:47.708Z,8.20
2018-06-24T16:50:15.733Z,6.60
2018-06-24T16:52:43.999Z,9.07
2018-06-24T16:55:12.083Z,10.20
2018-06-24T16:57:40.172Z,18.17
2018-06-24T17:00:08.448Z,11.03
2018-06-24T17:02:36.731Z,9.93
2018-06-24T17:05:04.783Z,12.50
2018-06-24T17:07:32.904Z,10.73
2018-06-24T17:10:01.052Z,10.03
2018-06-24T17:12:29.427Z,12.40
2018-06-24T17:14:57.468Z,11.43
2018-06-24T17:17:25.618Z,11.77
2018-06-24T17:19:53.708Z,12.70
2018-06-24T17:22:21.845Z,10.77
2018-06-24T17:24:49.935Z,13.47
2018-06-24T17:27:18.052Z,9.00
2018-06-24T17:29:46.036Z,12.70
2018-06-24T17:32:14.129Z,17.03
2018-06-24T17:34:43.031Z,10.20
2018-06-24T17:37:11.144Z,8.80
2018-06-24T17:39:39.149Z,10.70
2018-06-24T17:43:10.575Z,11.20
2018-06-24T17:45:38.683Z,9.93
2018-06-24T17:48:06.755Z,15.97
2018-06-24T17:50:34.867Z,10.83
2018-06-24T17:53:02.941Z,12.00
2018-06-24T17:55:31.032Z,15.03
2018-06-24T17:57:59.172Z,10.43
2018-06-24T18:00:27.167Z,12.37
2018-06-24T18:02:55.774Z,11.47
2018-06-24T18:05:23.870Z,9.77
2018-06-24T18:07:52.896Z,13.50
2018-06-24T18:10:21.058Z,8.80
2018-06-24T18:12:49.292Z,9.40
2018-06-24T18:15:17.414Z,8.33
2018-06-24T18:17:45.550Z,13.60
2018-06-24T18:20:13.649Z,9.37
2018-06-24T18:22:41.722Z,8.30
2018-06-24T18:25:09.821Z,7.27
2018-06-24T18:27:37.878Z,10.40
2018-06-24T18:30:05.977Z,13.00
2018-06-24T18:32:34.034Z,10.73
2018-06-24T18:35:02.096Z,10.10
2018-06-24T18:37:30.238Z,8.47
2018-06-24T18:39:58.284Z,7.73
2018-06-24T18:42:26.339Z,10.30
2018-06-24T18:44:54.472Z,8.83
2018-06-24T18:47:22.484Z,10.83
2018-06-24T18:49:50.604Z,9.90
2018-06-24T18:52:18.672Z,7.27
2018-06-24T18:54:46.967Z,8.70
2018-06-24T18:57:15.141Z,7.80
2018-06-24T18:59:43.288Z,7.80
2018-06-24T19:02:11.448Z,6.40
2018-06-24T19:04:39.673Z,8.17
2018-06-24T19:07:14.345Z,7.90
2018-06-24T19:09:42.365Z,7.10
2018-06-24T19:12:10.478Z,8.17
2018-06-24T19:14:38.678Z,8.27
2018-06-24T19:17:06.790Z,8.10
2018-06-24T19:19:34.944Z,7.37
2018-06-24T19:22:03.007Z,7.90
2018-06-24T19:24:31.079Z,6.90
2018-06-24T19:26:59.155Z,7.10
2018-06-24T19:29:27.314Z,7.40
2018-06-24T19:31:55.417Z,7.50
2018-06-24T19:34:23.540Z,6.60
2018-06-24T19:36:51.605Z,9.10
2018-06-24T19:39:19.864Z,6.63
2018-06-24T19:41:47.997Z,7.20
2018-06-24T19:44:16.072Z,7.37
2018-06-24T19:46:44.212Z,8.07
2018-06-24T19:49:12.433Z,6.23
2018-06-24T19:51:40.602Z,7.27
2018-06-24T19:54:08.635Z,7.80
2018-06-24T19:56:36.827Z,6.57
2018-06-24T19:59:05.045Z,9.30
2018-06-24T20:01:33.302Z,6.70
2018-06-24T20:04:01.300Z,7.97
2018-06-24T20:06:29.364Z,7.10
2018-06-24T20:08:57.542Z,8.47
2018-06-24T20:11:25.574Z,7.50
2018-06-24T20:13:53.761Z,9.27
2018-06-24T20:16:21.744Z,10.97
2018-06-24T20:18:49.871Z,7.63
